sensor_id;sensor_type;location;lat;lon;timestamp;pressure;altitude;pressure_sealevel;temperature;humidity
49342;BME280;35210;41.606;-87.602;2023-04-28T00:00:39;99057.78;;;18.14;36.95
49342;BME280;35210;41.606;-87.602;2023-04-28T00:03:08;99048.41;;;18.18;36.87
49342;BME280;35210;41.606;-87.602;2023-04-28T00:05:38;99050.47;;;18.08;37.71
49342;BME280;35210;41.606;-87.602;2023-04-28T00:08:06;99057.34;;;18.02;38.41
49342;BME280;35210;41.606;-87.602;2023-04-28T00:10:34;99059.69;;;17.97;37.69
49342;BME280;35210;41.606;-87.602;2023-04-28T00:13:02;99057.13;;;17.81;38.12
49342;BME280;35210;41.606;-87.602;2023-04-28T00:15:31;99059.00;;;17.72;38.64
49342;BME280;35210;41.606;-87.602;2023-04-28T00:17:59;99064.94;;;17.83;38.63
49342;BME280;35210;41.606;-87.602;2023-04-28T00:20:28;99059.00;;;17.64;38.87
49342;BME280;35210;41.606;-87.602;2023-04-28T00:22:58;99063.06;;;17.44;39.28
49342;BME280;35210;41.606;-87.602;2023-04-28T00:25:26;99064.56;;;17.38;39.99
49342;BME280;35210;41.606;-87.602;2023-04-28T00:27:54;99064.75;;;17.29;39.70
49342;BME280;35210;41.606;-87.602;2023-04-28T00:30:23;99067.78;;;17.18;40.17
49342;BME280;35210;41.606;-87.602;2023-04-28T00:32:52;99071.97;;;17.04;40.49
49342;BME280;35210;41.606;-87.602;2023-04-28T00:35:20;99073.50;;;16.90;41.19
49342;BME280;35210;41.606;-87.602;2023-04-28T00:37:48;99084.66;;;16.78;41.92
49342;BME280;35210;41.606;-87.602;2023-04-28T00:40:18;99078.44;;;16.61;41.84
49342;BME280;35210;41.606;-87.602;2023-04-28T00:42:46;99080.09;;;16.54;42.05
49342;BME280;35210;41.606;-87.602;2023-04-28T00:45:14;99081.75;;;16.55;41.44
49342;BME280;35210;41.606;-87.602;2023-04-28T00:47:42;99079.09;;;16.47;41.52
49342;BME280;35210;41.606;-87.602;2023-04-28T00:50:11;99080.22;;;16.36;41.81
49342;BME280;35210;41.606;-87.602;2023-04-28T00:52:39;99086.38;;;16.36;41.12
49342;BME280;35210;41.606;-87.602;2023-04-28T00:55:08;99098.34;;;16.16;41.23
49342;BME280;35210;41.606;-87.602;2023-04-28T00:57:38;99091.66;;;16.04;41.98
49342;BME280;35210;41.606;-87.602;2023-04-28T01:00:07;99089.44;;;15.91;42.46
49342;BME280;35210;41.606;-87.602;2023-04-28T01:02:36;99090.28;;;15.92;42.54
49342;BME280;35210;41.606;-87.602;2023-04-28T01:05:05;99090.28;;;15.92;42.67
49342;BME280;35210;41.606;-87.602;2023-04-28T01:07:33;99088.25;;;15.86;42.55
49342;BME280;35210;41.606;-87.602;2023-04-28T01:10:02;99099.75;;;15.60;43.13
49342;BME280;35210;41.606;-87.602;2023-04-28T01:12:30;99100.47;;;15.70;43.32
49342;BME280;35210;41.606;-87.602;2023-04-28T01:15:03;99101.78;;;15.66;43.34
49342;BME280;35210;41.606;-87.602;2023-04-28T01:17:32;99109.41;;;15.61;43.99
49342;BME280;35210;41.606;-87.602;2023-04-28T01:20:00;99102.78;;;15.57;43.93
49342;BME280;35210;41.606;-87.602;2023-04-28T01:22:29;99100.72;;;15.51;44.54
49342;BME280;35210;41.606;-87.602;2023-04-28T01:24:59;99109.31;;;15.45;45.14
49342;BME280;35210;41.606;-87.602;2023-04-28T01:27:29;99119.97;;;15.45;44.98
49342;BME280;35210;41.606;-87.602;2023-04-28T01:29:57;99121.63;;;15.46;45.45
49342;BME280;35210;41.606;-87.602;2023-04-28T01:32:25;99129.47;;;15.48;45.32
49342;BME280;35210;41.606;-87.602;2023-04-28T01:34:54;99129.03;;;15.60;44.51
49342;BME280;35210;41.606;-87.602;2023-04-28T01:37:22;99124.38;;;15.62;43.88
49342;BME280;35210;41.606;-87.602;2023-04-28T01:39:50;99129.97;;;15.51;43.68
49342;BME280;35210;41.606;-87.602;2023-04-28T01:42:20;99137.38;;;15.39;44.22
49342;BME280;35210;41.606;-87.602;2023-04-28T01:44:49;99133.81;;;15.31;44.12
49342;BME280;35210;41.606;-87.602;2023-04-28T01:47:17;99136.34;;;15.32;43.60
49342;BME280;35210;41.606;-87.602;2023-04-28T01:49:45;99126.31;;;15.26;44.36
49342;BME280;35210;41.606;-87.602;2023-04-28T01:52:15;99132.09;;;15.22;44.32
49342;BME280;35210;41.606;-87.602;2023-04-28T01:54:45;99133.91;;;15.21;44.14
49342;BME280;35210;41.606;-87.602;2023-04-28T01:57:13;99127.09;;;15.01;44.87
49342;BME280;35210;41.606;-87.602;2023-04-28T01:59:45;99132.28;;;15.02;45.14
49342;BME280;35210;41.606;-87.602;2023-04-28T02:02:13;99135.75;;;15.03;45.23
49342;BME280;35210;41.606;-87.602;2023-04-28T02:04:41;99132.19;;;14.94;45.27
49342;BME280;35210;41.606;-87.602;2023-04-28T02:07:09;99129.16;;;14.89;45.75
49342;BME280;35210;41.606;-87.602;2023-04-28T02:09:37;99135.34;;;14.72;46.35
49342;BME280;35210;41.606;-87.602;2023-04-28T02:12:06;99140.75;;;14.80;46.43
49342;BME280;35210;41.606;-87.602;2023-04-28T02:14:35;99144.53;;;14.77;46.32
49342;BME280;35210;41.606;-87.602;2023-04-28T02:17:05;99152.50;;;14.77;46.78
49342;BME280;35210;41.606;-87.602;2023-04-28T02:19:34;99149.47;;;14.72;46.90
49342;BME280;35210;41.606;-87.602;2023-04-28T02:22:03;99162.06;;;14.70;47.19
49342;BME280;35210;41.606;-87.602;2023-04-28T02:24:34;99152.59;;;14.68;47.31
49342;BME280;35210;41.606;-87.602;2023-04-28T02:27:04;99159.78;;;14.58;48.07
49342;BME280;35210;41.606;-87.602;2023-04-28T02:29:33;99161.91;;;14.54;48.16
49342;BME280;35210;41.606;-87.602;2023-04-28T02:32:01;99167.66;;;14.50;49.01
49342;BME280;35210;41.606;-87.602;2023-04-28T02:34:34;99163.28;;;14.58;48.42
49342;BME280;35210;41.606;-87.602;2023-04-28T02:37:02;99163.88;;;14.52;49.30
49342;BME280;35210;41.606;-87.602;2023-04-28T02:39:31;99166.22;;;14.55;49.89
49342;BME280;35210;41.606;-87.602;2023-04-28T02:41:59;99159.09;;;14.56;49.17
49342;BME280;35210;41.606;-87.602;2023-04-28T02:44:30;99166.09;;;14.57;49.35
49342;BME280;35210;41.606;-87.602;2023-04-28T02:46:58;99154.47;;;14.58;49.77
49342;BME280;35210;41.606;-87.602;2023-04-28T02:49:27;99160.63;;;14.58;49.83
49342;BME280;35210;41.606;-87.602;2023-04-28T02:51:57;99154.25;;;14.69;49.08
49342;BME280;35210;41.606;-87.602;2023-04-28T02:54:25;99150.59;;;14.70;49.54
49342;BME280;35210;41.606;-87.602;2023-04-28T02:56:54;99150.59;;;14.70;49.36
49342;BME280;35210;41.606;-87.602;2023-04-28T02:59:23;99142.94;;;14.67;49.21
49342;BME280;35210;41.606;-87.602;2023-04-28T03:01:52;99140.78;;;14.53;50.16
49342;BME280;35210;41.606;-87.602;2023-04-28T03:04:20;99143.16;;;14.56;50.06
49342;BME280;35210;41.606;-87.602;2023-04-28T03:06:48;99137.84;;;14.56;50.05
49342;BME280;35210;41.606;-87.602;2023-04-28T03:09:18;99148.81;;;14.43;50.46
49342;BME280;35210;41.606;-87.602;2023-04-28T03:11:46;99150.81;;;14.31;51.28
49342;BME280;35210;41.606;-87.602;2023-04-28T03:14:14;99150.53;;;14.34;51.10
49342;BME280;35210;41.606;-87.602;2023-04-28T03:16:43;99156.44;;;14.28;51.32
49342;BME280;35210;41.606;-87.602;2023-04-28T03:19:11;99155.84;;;14.34;51.38
49342;BME280;35210;41.606;-87.602;2023-04-28T03:21:39;99155.16;;;14.32;51.39
49342;BME280;35210;41.606;-87.602;2023-04-28T03:24:07;99162.13;;;14.33;51.47
49342;BME280;35210;41.606;-87.602;2023-04-28T03:26:37;99151.81;;;14.30;51.67
49342;BME280;35210;41.606;-87.602;2023-04-28T03:29:05;99153.88;;;14.36;51.64
49342;BME280;35210;41.606;-87.602;2023-04-28T03:31:33;99146.31;;;14.41;51.62
49342;BME280;35210;41.606;-87.602;2023-04-28T03:34:01;99142.38;;;14.45;51.75
49342;BME280;35210;41.606;-87.602;2023-04-28T03:36:30;99134.78;;;14.51;51.71
49342;BME280;35210;41.606;-87.602;2023-04-28T03:38:58;99129.47;;;14.51;51.57
49342;BME280;35210;41.606;-87.602;2023-04-28T03:41:26;99121.59;;;14.59;51.21
49342;BME280;35210;41.606;-87.602;2023-04-28T03:43:56;99140.50;;;14.56;51.54
49342;BME280;35210;41.606;-87.602;2023-04-28T03:46:24;99129.19;;;14.54;51.39
49342;BME280;35210;41.606;-87.602;2023-04-28T03:48:52;99127.91;;;14.58;51.66
49342;BME280;35210;41.606;-87.602;2023-04-28T03:51:20;99119.25;;;14.56;51.73
49342;BME280;35210;41.606;-87.602;2023-04-28T03:53:49;99121.50;;;14.51;52.09
49342;BME280;35210;41.606;-87.602;2023-04-28T03:56:17;99111.72;;;14.51;52.17
49342;BME280;35210;41.606;-87.602;2023-04-28T03:58:48;99110.72;;;14.52;52.48
49342;BME280;35210;41.606;-87.602;2023-04-28T04:01:19;99116.19;;;14.51;52.49
49342;BME280;35210;41.606;-87.602;2023-04-28T04:03:47;99101.41;;;14.48;52.96
49342;BME280;35210;41.606;-87.602;2023-04-28T04:06:15;99104.59;;;14.52;52.72
49342;BME280;35210;41.606;-87.602;2023-04-28T04:08:44;99111.56;;;14.53;52.91
49342;BME280;35210;41.606;-87.602;2023-04-28T04:11:12;99102.09;;;14.50;52.95
49342;BME280;35210;41.606;-87.602;2023-04-28T04:13:41;99089.78;;;14.49;52.82
49342;BME280;35210;41.606;-87.602;2023-04-28T04:16:09;99085.00;;;14.53;52.90
49342;BME280;35210;41.606;-87.602;2023-04-28T04:18:39;99081.66;;;14.51;53.17
49342;BME280;35210;41.606;-87.602;2023-04-28T04:21:08;99081.66;;;14.51;53.76
49342;BME280;35210;41.606;-87.602;2023-04-28T04:23:36;99081.97;;;14.48;53.63
49342;BME280;35210;41.606;-87.602;2023-04-28T04:26:04;99074.69;;;14.50;53.55
49342;BME280;35210;41.606;-87.602;2023-04-28T04:28:32;99071.88;;;14.51;54.13
49342;BME280;35210;41.606;-87.602;2023-04-28T04:31:00;99071.34;;;14.48;54.18
49342;BME280;35210;41.606;-87.602;2023-04-28T04:33:29;99063.38;;;14.48;54.48
49342;BME280;35210;41.606;-87.602;2023-04-28T04:35:58;99064.94;;;14.40;54.98
49342;BME280;35210;41.606;-87.602;2023-04-28T04:38:27;99066.91;;;14.38;54.87
49342;BME280;35210;41.606;-87.602;2023-04-28T04:40:55;99060.91;;;14.36;55.50
49342;BME280;35210;41.606;-87.602;2023-04-28T04:43:23;99056.84;;;14.42;55.58
49342;BME280;35210;41.606;-87.602;2023-04-28T04:45:51;99054.59;;;14.37;55.56
49342;BME280;35210;41.606;-87.602;2023-04-28T04:48:19;99049.28;;;14.37;55.75
49342;BME280;35210;41.606;-87.602;2023-04-28T04:50:48;99049.97;;;14.39;55.79
49342;BME280;35210;41.606;-87.602;2023-04-28T04:53:18;99045.13;;;14.35;56.16
49342;BME280;35210;41.606;-87.602;2023-04-28T04:55:46;99036.63;;;14.31;56.36
49342;BME280;35210;41.606;-87.602;2023-04-28T04:58:14;99046.84;;;14.26;56.89
49342;BME280;35210;41.606;-87.602;2023-04-28T05:00:43;99036.22;;;14.26;57.59
49342;BME280;35210;41.606;-87.602;2023-04-28T05:03:11;99042.28;;;14.19;57.90
49342;BME280;35210;41.606;-87.602;2023-04-28T05:05:39;99044.72;;;14.12;58.02
49342;BME280;35210;41.606;-87.602;2023-04-28T05:08:07;99053.00;;;14.09;58.12
49342;BME280;35210;41.606;-87.602;2023-04-28T05:10:37;99043.22;;;14.09;58.27
49342;BME280;35210;41.606;-87.602;2023-04-28T05:13:05;99042.84;;;14.04;58.98
49342;BME280;35210;41.606;-87.602;2023-04-28T05:15:34;99029.72;;;14.03;59.16
49342;BME280;35210;41.606;-87.602;2023-04-28T05:18:02;99041.03;;;14.05;59.27
49342;BME280;35210;41.606;-87.602;2023-04-28T05:20:35;99035.03;;;14.03;59.88
49342;BME280;35210;41.606;-87.602;2023-04-28T05:23:04;99030.69;;;14.02;59.62
49342;BME280;35210;41.606;-87.602;2023-04-28T05:25:32;99036.31;;;13.99;59.88
49342;BME280;35210;41.606;-87.602;2023-04-28T05:28:02;99031.44;;;13.94;59.63
49342;BME280;35210;41.606;-87.602;2023-04-28T05:30:32;99029.91;;;13.92;60.13
49342;BME280;35210;41.606;-87.602;2023-04-28T05:33:00;99021.13;;;13.91;59.97
49342;BME280;35210;41.606;-87.602;2023-04-28T05:35:28;99022.25;;;13.89;59.82
49342;BME280;35210;41.606;-87.602;2023-04-28T05:37:57;99022.25;;;13.89;59.91
49342;BME280;35210;41.606;-87.602;2023-04-28T05:40:26;99013.59;;;13.87;59.96
49342;BME280;35210;41.606;-87.602;2023-04-28T05:42:54;99021.56;;;13.87;60.05
49342;BME280;35210;41.606;-87.602;2023-04-28T05:45:24;99020.72;;;13.86;60.09
49342;BME280;35210;41.606;-87.602;2023-04-28T05:47:52;99013.59;;;13.87;60.94
49342;BME280;35210;41.606;-87.602;2023-04-28T05:50:21;99021.72;;;13.85;61.04
49342;BME280;35210;41.606;-87.602;2023-04-28T05:52:49;99018.22;;;13.85;61.77
49342;BME280;35210;41.606;-87.602;2023-04-28T05:55:17;99013.59;;;13.87;61.77
49342;BME280;35210;41.606;-87.602;2023-04-28T05:57:46;99015.28;;;13.88;61.73
49342;BME280;35210;41.606;-87.602;2023-04-28T06:00:14;99012.63;;;13.88;61.80
49342;BME280;35210;41.606;-87.602;2023-04-28T06:02:44;99007.47;;;13.86;61.50
49342;BME280;35210;41.606;-87.602;2023-04-28T06:05:13;98999.66;;;13.85;61.82
49342;BME280;35210;41.606;-87.602;2023-04-28T06:07:42;98999.66;;;13.85;61.97
49342;BME280;35210;41.606;-87.602;2023-04-28T06:10:10;99005.56;;;13.78;62.12
49342;BME280;35210;41.606;-87.602;2023-04-28T06:12:38;99009.19;;;13.77;62.29
49342;BME280;35210;41.606;-87.602;2023-04-28T06:15:07;99011.16;;;13.75;62.28
49342;BME280;35210;41.606;-87.602;2023-04-28T06:17:35;99013.66;;;13.77;62.38
49342;BME280;35210;41.606;-87.602;2023-04-28T06:20:06;99017.16;;;13.77;62.63
49342;BME280;35210;41.606;-87.602;2023-04-28T06:22:35;99014.66;;;13.76;62.50
49342;BME280;35210;41.606;-87.602;2023-04-28T06:25:04;99011.53;;;13.80;62.50
49342;BME280;35210;41.606;-87.602;2023-04-28T06:27:33;99026.78;;;13.78;61.76
49342;BME280;35210;41.606;-87.602;2023-04-28T06:30:01;99014.34;;;13.79;62.03
49342;BME280;35210;41.606;-87.602;2023-04-28T06:32:29;99006.69;;;13.76;62.03
49342;BME280;35210;41.606;-87.602;2023-04-28T06:34:57;99009.19;;;13.77;62.49
49342;BME280;35210;41.606;-87.602;2023-04-28T06:37:29;99007.66;;;13.75;62.81
49342;BME280;35210;41.606;-87.602;2023-04-28T06:39:57;99010.03;;;13.78;63.42
49342;BME280;35210;41.606;-87.602;2023-04-28T06:42:25;99003.59;;;13.80;63.04
49342;BME280;35210;41.606;-87.602;2023-04-28T06:44:54;99004.28;;;13.82;61.77
49342;BME280;35210;41.606;-87.602;2023-04-28T06:47:22;99006.53;;;13.77;62.36
49342;BME280;35210;41.606;-87.602;2023-04-28T06:49:50;99005.16;;;13.73;62.48
49342;BME280;35210;41.606;-87.602;2023-04-28T06:52:19;99000.16;;;13.70;61.91
49342;BME280;35210;41.606;-87.602;2023-04-28T06:54:49;99004.78;;;13.68;61.75
49342;BME280;35210;41.606;-87.602;2023-04-28T06:57:17;98998.63;;;13.68;60.56
49342;BME280;35210;41.606;-87.602;2023-04-28T06:59:46;98989.84;;;13.67;59.34
49342;BME280;35210;41.606;-87.602;2023-04-28T07:02:14;98988.84;;;13.68;59.68
49342;BME280;35210;41.606;-87.602;2023-04-28T07:04:42;98987.19;;;13.67;59.48
49342;BME280;35210;41.606;-87.602;2023-04-28T07:07:10;98985.50;;;13.66;58.74
49342;BME280;35210;41.606;-87.602;2023-04-28T07:09:38;98976.19;;;13.62;58.14
49342;BME280;35210;41.606;-87.602;2023-04-28T07:12:08;98977.31;;;13.60;57.65
49342;BME280;35210;41.606;-87.602;2023-04-28T07:14:36;98971.16;;;13.59;57.46
49342;BME280;35210;41.606;-87.602;2023-04-28T07:17:04;98972.00;;;13.60;57.04
49342;BME280;35210;41.606;-87.602;2023-04-28T07:19:33;98974.50;;;13.61;56.79
49342;BME280;35210;41.606;-87.602;2023-04-28T07:22:01;98978.97;;;13.61;56.63
49342;BME280;35210;41.606;-87.602;2023-04-28T07:24:32;98974.81;;;13.58;56.09
49342;BME280;35210;41.606;-87.602;2023-04-28T07:27:00;98974.13;;;13.56;55.95
49342;BME280;35210;41.606;-87.602;2023-04-28T07:29:31;98970.47;;;13.57;56.49
49342;BME280;35210;41.606;-87.602;2023-04-28T07:32:00;98963.06;;;13.61;57.20
49342;BME280;35210;41.606;-87.602;2023-04-28T07:34:30;98972.16;;;13.58;57.50
49342;BME280;35210;41.606;-87.602;2023-04-28T07:36:58;98963.50;;;13.56;57.58
49342;BME280;35210;41.606;-87.602;2023-04-28T07:39:26;98952.22;;;13.54;57.48
49342;BME280;35210;41.606;-87.602;2023-04-28T07:41:54;98949.25;;;13.57;56.35
49342;BME280;35210;41.606;-87.602;2023-04-28T07:44:23;98946.75;;;13.56;56.47
49342;BME280;35210;41.606;-87.602;2023-04-28T07:46:53;98939.47;;;13.58;56.39
49342;BME280;35210;41.606;-87.602;2023-04-28T07:49:21;98929.84;;;13.57;56.65
49342;BME280;35210;41.606;-87.602;2023-04-28T07:51:49;98936.97;;;13.56;56.64
49342;BME280;35210;41.606;-87.602;2023-04-28T07:54:20;98933.03;;;13.60;56.05
49342;BME280;35210;41.606;-87.602;2023-04-28T07:56:49;98937.47;;;13.69;55.25
49342;BME280;35210;41.606;-87.602;2023-04-28T07:59:17;98934.03;;;13.59;55.14
49342;BME280;35210;41.606;-87.602;2023-04-28T08:01:45;98927.50;;;13.54;55.51
49342;BME280;35210;41.606;-87.602;2023-04-28T08:04:15;98937.56;;;13.50;55.64
49342;BME280;35210;41.606;-87.602;2023-04-28T08:06:43;98940.53;;;13.47;56.20
49342;BME280;35210;41.606;-87.602;2023-04-28T08:09:11;98932.84;;;13.44;56.65
49342;BME280;35210;41.606;-87.602;2023-04-28T08:11:39;98926.19;;;13.40;56.54
49342;BME280;35210;41.606;-87.602;2023-04-28T08:14:07;98935.97;;;13.39;57.05
49342;BME280;35210;41.606;-87.602;2023-04-28T08:16:36;98934.00;;;13.41;58.02
49342;BME280;35210;41.606;-87.602;2023-04-28T08:19:06;98934.28;;;13.38;58.38
49342;BME280;35210;41.606;-87.602;2023-04-28T08:21:36;98924.50;;;13.39;57.96
49342;BME280;35210;41.606;-87.602;2023-04-28T08:24:04;98917.88;;;13.35;58.14
49342;BME280;35210;41.606;-87.602;2023-04-28T08:26:33;98921.50;;;13.34;58.42
49342;BME280;35210;41.606;-87.602;2023-04-28T08:29:01;98920.38;;;13.36;58.16
49342;BME280;35210;41.606;-87.602;2023-04-28T08:31:29;98929.59;;;13.32;58.45
49342;BME280;35210;41.606;-87.602;2023-04-28T08:33:58;98926.81;;;13.34;58.68
49342;BME280;35210;41.606;-87.602;2023-04-28T08:36:26;98922.78;;;13.30;58.50
49342;BME280;35210;41.606;-87.602;2023-04-28T08:39:01;98915.13;;;13.27;58.06
49342;BME280;35210;41.606;-87.602;2023-04-28T08:41:33;98917.78;;;13.27;58.60
49342;BME280;35210;41.606;-87.602;2023-04-28T08:44:07;98913.44;;;13.26;58.42
49342;BME280;35210;41.606;-87.602;2023-04-28T08:46:39;98912.47;;;13.27;58.86
49342;BME280;35210;41.606;-87.602;2023-04-28T08:49:13;98917.78;;;13.27;59.79
49342;BME280;35210;41.606;-87.602;2023-04-28T08:51:44;98908.16;;;13.26;59.90
49342;BME280;35210;41.606;-87.602;2023-04-28T08:54:17;98917.09;;;13.25;60.04
49342;BME280;35210;41.606;-87.602;2023-04-28T08:56:45;98904.50;;;13.27;60.34
49342;BME280;35210;41.606;-87.602;2023-04-28T08:59:14;98904.50;;;13.27;60.55
49342;BME280;35210;41.606;-87.602;2023-04-28T09:01:43;98903.53;;;13.28;60.88
49342;BME280;35210;41.606;-87.602;2023-04-28T09:04:16;98905.19;;;13.29;60.85
49342;BME280;35210;41.606;-87.602;2023-04-28T09:06:44;98901.88;;;13.27;61.03
49342;BME280;35210;41.606;-87.602;2023-04-28T09:09:31;98902.84;;;13.26;60.53
49342;BME280;35210;41.606;-87.602;2023-04-28T09:12:01;98894.75;;;13.27;60.72
49342;BME280;35210;41.606;-87.602;2023-04-28T09:14:32;98896.72;;;13.25;60.26
49342;BME280;35210;41.606;-87.602;2023-04-28T09:17:01;98897.69;;;13.24;60.44
49342;BME280;35210;41.606;-87.602;2023-04-28T09:19:32;98890.03;;;13.21;60.21
49342;BME280;35210;41.606;-87.602;2023-04-28T09:22:01;98893.66;;;13.20;60.62
49342;BME280;35210;41.606;-87.602;2023-04-28T09:24:32;98883.22;;;13.19;62.43
49342;BME280;35210;41.606;-87.602;2023-04-28T09:27:03;98888.22;;;13.12;63.91
49342;BME280;35210;41.606;-87.602;2023-04-28T09:29:33;98887.00;;;13.06;64.58
49342;BME280;35210;41.606;-87.602;2023-04-28T09:32:16;98883.81;;;13.03;64.28
49342;BME280;35210;41.606;-87.602;2023-04-28T09:34:45;98878.94;;;12.98;64.21
49342;BME280;35210;41.606;-87.602;2023-04-28T09:37:15;98877.00;;;13.00;63.52
49342;BME280;35210;41.606;-87.602;2023-04-28T09:39:47;98871.16;;;12.97;63.26
49342;BME280;35210;41.606;-87.602;2023-04-28T09:42:32;98868.50;;;12.97;63.74
49342;BME280;35210;41.606;-87.602;2023-04-28T09:45:01;98873.94;;;12.95;63.74
49342;BME280;35210;41.606;-87.602;2023-04-28T09:47:30;98887.03;;;12.97;62.87
49342;BME280;35210;41.606;-87.602;2023-04-28T09:50:02;98885.38;;;12.96;63.10
49342;BME280;35210;41.606;-87.602;2023-04-28T09:52:32;98889.84;;;12.95;62.89
49342;BME280;35210;41.606;-87.602;2023-04-28T09:55:03;98893.75;;;12.91;63.54
49342;BME280;35210;41.606;-87.602;2023-04-28T09:57:34;98891.25;;;12.90;63.33
49342;BME280;35210;41.606;-87.602;2023-04-28T10:00:04;98893.22;;;12.88;62.73
49342;BME280;35210;41.606;-87.602;2023-04-28T10:02:35;98886.25;;;12.87;63.00
49342;BME280;35210;41.606;-87.602;2023-04-28T10:05:04;98896.16;;;12.84;62.73
49342;BME280;35210;41.606;-87.602;2023-04-28T10:07:34;98895.47;;;12.82;63.21
49342;BME280;35210;41.606;-87.602;2023-04-28T10:10:06;98892.00;;;12.82;62.89
49342;BME280;35210;41.606;-87.602;2023-04-28T10:12:36;98894.09;;;12.78;63.05
49342;BME280;35210;41.606;-87.602;2023-04-28T10:15:06;98893.53;;;12.75;64.17
49342;BME280;35210;41.606;-87.602;2023-04-28T10:17:38;98897.16;;;12.74;63.74
49342;BME280;35210;41.606;-87.602;2023-04-28T10:20:07;98903.59;;;12.71;64.15
49342;BME280;35210;41.606;-87.602;2023-04-28T10:22:46;98896.06;;;12.67;63.54
49342;BME280;35210;41.606;-87.602;2023-04-28T10:25:30;98896.06;;;12.67;63.49
49342;BME280;35210;41.606;-87.602;2023-04-28T10:27:59;98893.72;;;12.64;63.49
49342;BME280;35210;41.606;-87.602;2023-04-28T10:30:27;98901.97;;;12.61;63.92
49342;BME280;35210;41.606;-87.602;2023-04-28T10:33:23;98901.16;;;12.60;63.24
49342;BME280;35210;41.606;-87.602;2023-04-28T10:36:04;98901.66;;;12.64;63.01
49342;BME280;35210;41.606;-87.602;2023-04-28T10:38:33;98900.16;;;12.61;63.14
49342;BME280;35210;41.606;-87.602;2023-04-28T10:41:03;98898.94;;;12.56;62.55
49342;BME280;35210;41.606;-87.602;2023-04-28T10:43:36;98902.84;;;12.52;63.27
49342;BME280;35210;41.606;-87.602;2023-04-28T10:46:06;98905.09;;;12.46;64.03
49342;BME280;35210;41.606;-87.602;2023-04-28T10:49:04;98912.34;;;12.44;63.18
49342;BME280;35210;41.606;-87.602;2023-04-28T10:51:34;98911.63;;;12.42;63.10
49342;BME280;35210;41.606;-87.602;2023-04-28T10:54:15;98914.44;;;12.41;62.87
49342;BME280;35210;41.606;-87.602;2023-04-28T10:57:21;98916.25;;;12.40;63.36
49342;BME280;35210;41.606;-87.602;2023-04-28T10:59:50;98924.03;;;12.42;63.98
49342;BME280;35210;41.606;-87.602;2023-04-28T11:02:39;98928.50;;;12.41;63.21
49342;BME280;35210;41.606;-87.602;2023-04-28T11:05:17;98932.13;;;12.40;63.35
49342;BME280;35210;41.606;-87.602;2023-04-28T11:11:16;98938.25;;;12.41;64.59
49342;BME280;35210;41.606;-87.602;2023-04-28T11:13:46;98930.19;;;12.42;64.40
49342;BME280;35210;41.606;-87.602;2023-04-28T11:16:17;98929.88;;;12.45;63.66
49342;BME280;35210;41.606;-87.602;2023-04-28T11:19:00;98927.38;;;12.44;61.32
49342;BME280;35210;41.606;-87.602;2023-04-28T11:21:31;98929.88;;;12.45;60.60
49342;BME280;35210;41.606;-87.602;2023-04-28T11:24:00;98933.22;;;12.47;59.60
49342;BME280;35210;41.606;-87.602;2023-04-28T11:26:37;98931.72;;;12.45;59.47
49342;BME280;35210;41.606;-87.602;2023-04-28T11:29:07;98925.44;;;12.46;59.87
49342;BME280;35210;41.606;-87.602;2023-04-28T11:31:35;98933.22;;;12.47;60.28
49342;BME280;35210;41.606;-87.602;2023-04-28T11:34:05;98935.75;;;12.49;61.80
49342;BME280;35210;41.606;-87.602;2023-04-28T11:36:38;98934.75;;;12.50;61.97
49342;BME280;35210;41.606;-87.602;2023-04-28T11:39:07;98940.75;;;12.52;61.63
49342;BME280;35210;41.606;-87.602;2023-04-28T11:41:36;98942.41;;;12.53;61.76
49342;BME280;35210;41.606;-87.602;2023-04-28T11:44:14;98943.25;;;12.54;61.21
49342;BME280;35210;41.606;-87.602;2023-04-28T11:46:47;98940.47;;;12.55;61.17
49342;BME280;35210;41.606;-87.602;2023-04-28T11:49:20;98941.84;;;12.59;60.72
49342;BME280;35210;41.606;-87.602;2023-04-28T11:51:50;98945.34;;;12.60;61.77
49342;BME280;35210;41.606;-87.602;2023-04-28T11:54:21;98949.66;;;12.61;61.58
49342;BME280;35210;41.606;-87.602;2023-04-28T11:56:50;98950.50;;;12.61;61.85
49342;BME280;35210;41.606;-87.602;2023-04-28T11:59:23;98947.66;;;12.63;61.83
49342;BME280;35210;41.606;-87.602;2023-04-28T12:01:52;98945.44;;;12.68;61.32
49342;BME280;35210;41.606;-87.602;2023-04-28T12:04:28;98945.16;;;12.71;61.30
49342;BME280;35210;41.606;-87.602;2023-04-28T12:07:02;98952.81;;;12.74;61.02
49342;BME280;35210;41.606;-87.602;2023-04-28T12:09:31;98958.66;;;12.77;62.05
49342;BME280;35210;41.606;-87.602;2023-04-28T12:12:00;98956.56;;;12.81;61.14
49342;BME280;35210;41.606;-87.602;2023-04-28T12:14:32;98955.13;;;12.87;60.25
49342;BME280;35210;41.606;-87.602;2023-04-28T12:17:01;98956.25;;;12.84;60.65
49342;BME280;35210;41.606;-87.602;2023-04-28T12:19:31;98952.94;;;12.82;60.85
49342;BME280;35210;41.606;-87.602;2023-04-28T12:22:10;98967.69;;;12.84;61.03
49342;BME280;35210;41.606;-87.602;2023-04-28T12:24:38;98954.84;;;12.90;61.42
49342;BME280;35210;41.606;-87.602;2023-04-28T12:27:19;98960.69;;;12.93;61.42
49342;BME280;35210;41.606;-87.602;2023-04-28T12:29:51;98960.41;;;12.96;61.08
49342;BME280;35210;41.606;-87.602;2023-04-28T12:32:36;98961.94;;;12.99;61.19
49342;BME280;35210;41.606;-87.602;2023-04-28T12:35:07;98960.13;;;12.99;60.72
49342;BME280;35210;41.606;-87.602;2023-04-28T12:37:36;98963.47;;;13.01;60.69
49342;BME280;35210;41.606;-87.602;2023-04-28T12:40:06;98961.91;;;13.08;60.65
49342;BME280;35210;41.606;-87.602;2023-04-28T12:42:34;98974.59;;;13.14;59.74
49342;BME280;35210;41.606;-87.602;2023-04-28T12:45:05;98972.91;;;13.13;60.05
49342;BME280;35210;41.606;-87.602;2023-04-28T12:47:35;98974.59;;;13.14;59.46
49342;BME280;35210;41.606;-87.602;2023-04-28T12:50:05;98968.19;;;13.17;61.42
49342;BME280;35210;41.606;-87.602;2023-04-28T12:52:34;98971.38;;;13.21;61.75
49342;BME280;35210;41.606;-87.602;2023-04-28T12:55:03;98962.84;;;13.27;62.44
49342;BME280;35210;41.606;-87.602;2023-04-28T12:57:31;98969.81;;;13.28;62.72